Time;durP1;ratioP1;P1;durP2;ratioP2;P2;SDS_P1;SDS_P2;PMS_P1;PMS_P2;Temp;Humidity;BMP_temperature;BMP_pressure;BME280_temperature;BME280_humidity;BME280_pressure;Samples;Min_cycle;Max_cycle;Signal;HPM_P1;HPM_P2
2022/12/25 00:00:33;;;;;;;42.40;28.40;;;;;;;11.42;67.35;100288.65;105652;1304;21969;-64
2022/12/25 00:02:59;;;;;;;43.80;28.70;;;;;;;11.44;67.57;100293.54;105794;1306;21984;-60
2022/12/25 00:05:25;;;;;;;44.80;29.30;;;;;;;11.53;67.09;100298.48;105610;1306;21968;-64
2022/12/25 00:07:51;;;;;;;46.60;29.80;;;;;;;11.54;66.94;100302.33;105643;1307;22118;-60
2022/12/25 00:10:17;;;;;;;41.90;28.20;;;;;;;11.50;66.63;100305.20;105601;1305;21964;-64
2022/12/25 00:12:42;;;;;;;46.20;29.40;;;;;;;11.45;66.70;100311.64;105689;1306;22012;-64
2022/12/25 00:15:09;;;;;;;42.80;28.30;;;;;;;11.41;66.64;100317.83;105798;1306;21981;-64
2022/12/25 00:17:34;;;;;;;45.30;29.80;;;;;;;11.37;66.25;100324.75;105775;1306;22014;-61
2022/12/25 00:20:00;;;;;;;47.40;30.30;;;;;;;11.32;65.91;100326.06;105678;1307;22011;-63
2022/12/25 00:22:26;;;;;;;47.60;31.60;;;;;;;11.27;66.00;100330.17;105805;1297;21962;-62
2022/12/25 00:24:52;;;;;;;45.40;28.60;;;;;;;11.24;65.99;100327.78;105699;1306;21965;-62
2022/12/25 00:27:18;;;;;;;46.50;30.70;;;;;;;11.19;65.83;100334.00;105751;1306;21969;-62
2022/12/25 00:29:43;;;;;;;47.00;30.50;;;;;;;11.15;65.98;100337.75;104989;1299;1002847;-62
2022/12/25 00:32:10;;;;;;;45.70;28.80;;;;;;;11.16;65.86;100336.33;105651;1306;22031;-62
2022/12/25 00:34:35;;;;;;;48.80;30.20;;;;;;;11.16;65.94;100338.08;105645;1306;21981;-63
2022/12/25 00:37:01;;;;;;;40.40;27.00;;;;;;;11.19;66.32;100339.27;105671;1306;21974;-62
2022/12/25 00:39:26;;;;;;;41.80;28.30;;;;;;;11.27;66.61;100336.34;105697;1306;22510;-63
2022/12/25 00:44:36;;;;;;;46.70;29.40;;;;;;;11.37;66.45;100347.95;105628;1304;22031;-63
2022/12/25 00:47:02;;;;;;;46.00;29.90;;;;;;;11.37;66.04;100344.95;105665;1306;22011;-62
2022/12/25 00:49:27;;;;;;;46.00;30.30;;;;;;;11.34;65.75;100342.90;105664;1306;21967;-62
2022/12/25 00:51:53;;;;;;;44.70;29.60;;;;;;;11.29;65.89;100338.22;105611;1308;22441;-62
2022/12/25 00:54:19;;;;;;;41.50;28.40;;;;;;;11.26;65.79;100335.83;105613;1309;21964;-62
2022/12/25 00:56:45;;;;;;;43.80;29.20;;;;;;;11.26;66.32;100332.13;105662;1298;21979;-62
2022/12/25 00:59:10;;;;;;;46.60;29.60;;;;;;;11.29;66.65;100329.61;104891;1304;1002799;-63
2022/12/25 01:01:36;;;;;;;48.20;29.00;;;;;;;11.39;66.39;100331.39;105651;1306;22008;-62
2022/12/25 01:04:02;;;;;;;42.60;29.10;;;;;;;11.49;66.07;100331.77;105655;1307;21969;-62
2022/12/25 01:06:29;;;;;;;44.60;28.40;;;;;;;11.52;66.15;100330.48;105656;1306;22422;-62
2022/12/25 01:11:39;;;;;;;40.90;26.90;;;;;;;11.64;66.40;100322.20;105737;1306;21976;-62
2022/12/25 01:14:05;;;;;;;42.10;28.40;;;;;;;11.65;66.45;100327.44;105617;1306;22429;-62
2022/12/25 01:16:31;;;;;;;43.80;27.90;;;;;;;11.71;66.40;100329.63;105796;1307;21969;-62
2022/12/25 01:18:56;;;;;;;38.20;27.00;;;;;;;11.76;66.43;100328.83;105761;1305;21967;-62
2022/12/25 01:21:22;;;;;;;45.50;28.20;;;;;;;11.75;66.53;100326.20;105599;1299;23523;-62
2022/12/25 01:23:48;;;;;;;39.90;25.50;;;;;;;11.80;66.34;100322.96;105682;1308;21966;-62
2022/12/25 01:26:17;;;;;;;39.30;26.40;;;;;;;11.82;66.38;100323.98;105905;1307;22012;-62
2022/12/25 01:28:44;;;;;;;37.80;26.00;;;;;;;11.83;66.61;100320.44;105782;1306;21963;-62
2022/12/25 01:31:11;;;;;;;41.70;29.10;;;;;;;11.90;66.63;100320.85;105696;1306;21956;-62
2022/12/25 01:33:39;;;;;;;41.10;28.50;;;;;;;11.93;66.55;100322.73;105666;1305;21964;-62
2022/12/25 01:36:16;;;;;;;42.10;26.10;;;;;;;11.91;66.22;100321.89;105813;1306;21967;-62
2022/12/25 01:38:42;;;;;;;42.80;28.00;;;;;;;11.90;66.06;100327.00;105774;1306;21983;-63
2022/12/25 01:41:08;;;;;;;44.20;28.50;;;;;;;11.87;66.12;100328.98;105724;1306;21984;-62
2022/12/25 01:43:34;;;;;;;41.10;27.50;;;;;;;11.82;65.80;100331.36;105013;1306;1002437;-64
2022/12/25 01:46:02;;;;;;;39.20;25.90;;;;;;;11.78;65.71;100335.11;105728;1304;21971;-61
2022/12/25 01:48:36;;;;;;;43.00;26.90;;;;;;;11.75;65.62;100338.16;105795;1306;21966;-62
2022/12/25 01:51:14;;;;;;;48.30;32.20;;;;;;;11.70;65.55;100338.95;105841;1304;21969;-62
2022/12/25 01:53:42;;;;;;;40.80;27.50;;;;;;;11.64;65.52;100345.38;105802;1307;21962;-61
2022/12/25 01:56:07;;;;;;;44.00;28.00;;;;;;;11.63;65.52;100350.50;105864;1302;22078;-61
2022/12/25 01:58:33;;;;;;;42.90;27.90;;;;;;;11.61;65.40;100348.42;105889;1305;21999;-62
2022/12/25 02:00:58;;;;;;;41.50;26.90;;;;;;;11.54;65.10;100348.54;105723;1306;23080;-63
2022/12/25 02:03:24;;;;;;;39.20;25.70;;;;;;;11.57;65.49;100342.34;105926;1307;21964;-62
2022/12/25 02:05:50;;;;;;;39.60;26.90;;;;;;;11.63;65.85;100339.27;105616;1302;21955;-61
2022/12/25 02:08:18;;;;;;;39.90;26.80;;;;;;;11.68;66.12;100338.13;105688;1306;22003;-62
2022/12/25 02:10:44;;;;;;;41.60;28.30;;;;;;;11.72;66.07;100339.63;105655;1295;21968;-62
2022/12/25 02:13:15;;;;;;;40.90;28.80;;;;;;;11.72;66.03;100336.45;105598;1309;21979;-62
2022/12/25 02:16:04;;;;;;;40.90;26.50;;;;;;;11.75;65.78;100333.94;105551;1306;21946;-62
2022/12/25 02:18:57;;;;;;;45.70;28.60;;;;;;;11.76;65.54;100332.17;105603;1304;21973;-62
2022/12/25 02:21:51;;;;;;;38.00;25.80;;;;;;;11.72;65.58;100331.52;105565;1306;23618;-62
2022/12/25 02:24:26;;;;;;;42.30;27.10;;;;;;;11.70;65.64;100330.18;105576;1309;21974;-62
2022/12/25 02:27:20;;;;;;;45.30;28.30;;;;;;;11.68;65.32;100333.20;105598;1308;21960;-62
2022/12/25 02:30:03;;;;;;;44.50;29.80;;;;;;;11.63;65.18;100331.17;105600;1304;22061;-62
2022/12/25 02:32:45;;;;;;;42.10;28.50;;;;;;;11.58;65.36;100334.05;105759;1307;21975;-62
2022/12/25 02:35:27;;;;;;;45.70;29.10;;;;;;;11.62;65.63;100332.79;105777;1297;21964;-62
2022/12/25 02:38:04;;;;;;;39.80;27.40;;;;;;;11.67;65.68;100335.67;105788;1304;21985;-62
2022/12/25 02:40:38;;;;;;;40.80;27.70;;;;;;;11.76;65.69;100336.75;105700;1304;21961;-62
2022/12/25 03:08:19;;;;;;;44.00;28.90;;;;;;;11.65;65.37;100354.70;105629;1307;21973;-62
2022/12/25 03:13:36;;;;;;;41.20;26.50;;;;;;;11.61;65.57;100354.58;105608;1309;21979;-62
2022/12/25 03:18:47;;;;;;;41.30;27.10;;;;;;;11.56;65.87;100360.63;105698;1304;21966;-62
2022/12/25 03:26:55;;;;;;;40.10;26.90;;;;;;;11.57;65.10;100366.95;105645;1307;21967;-62
2022/12/25 03:32:13;;;;;;;39.50;26.70;;;;;;;11.61;65.03;100368.64;105724;1307;22005;-62
2022/12/25 04:36:08;;;;;;;37.50;25.20;;;;;;;11.97;65.18;100401.05;105584;1308;21964;-63
2022/12/25 04:38:34;;;;;;;38.40;26.70;;;;;;;11.97;65.19;100401.07;105705;1307;21971;-63
2022/12/25 04:41:00;;;;;;;37.40;24.60;;;;;;;11.94;64.88;100406.57;105774;1306;21970;-63
2022/12/25 04:43:26;;;;;;;37.20;25.00;;;;;;;11.90;64.64;100410.00;105715;1307;23042;-63
2022/12/25 04:45:53;;;;;;;37.80;25.40;;;;;;;11.81;64.60;100409.98;105295;1306;382780;-62
2022/12/25 04:48:19;;;;;;;37.60;24.60;;;;;;;11.76;64.71;100412.33;105681;1306;22072;-63
2022/12/25 04:50:45;;;;;;;32.30;22.90;;;;;;;11.73;64.98;100413.24;105636;1308;22575;-63
2022/12/25 04:53:11;;;;;;;35.00;23.50;;;;;;;11.74;65.13;100416.76;105551;1308;21977;-63
2022/12/25 04:55:37;;;;;;;32.50;23.00;;;;;;;11.77;65.08;100424.10;105588;1302;21975;-63
2022/12/25 04:58:03;;;;;;;32.90;23.40;;;;;;;11.79;64.93;100428.63;105686;1297;21961;-63
2022/12/25 05:00:29;;;;;;;32.70;22.10;;;;;;;11.75;64.70;100430.27;105734;1307;21957;-63
2022/12/25 05:02:56;;;;;;;31.40;22.50;;;;;;;11.70;64.64;100432.98;105617;1288;21968;-62
2022/12/25 05:05:22;;;;;;;31.70;22.40;;;;;;;11.67;64.72;100432.17;105809;1301;21968;-60
2022/12/25 05:07:52;;;;;;;32.30;21.90;;;;;;;11.64;64.54;100431.35;105770;1306;21663;-63
2022/12/25 05:10:18;;;;;;;37.30;25.20;;;;;;;11.64;64.78;100435.75;105652;1306;21966;-65
2022/12/25 05:12:43;;;;;;;31.40;22.60;;;;;;;11.62;64.86;100439.98;105772;1293;21968;-64
2022/12/25 05:15:09;;;;;;;31.40;21.60;;;;;;;11.64;65.06;100439.77;105885;1305;21996;-61
2022/12/25 05:17:36;;;;;;;31.90;22.10;;;;;;;11.65;64.82;100441.52;105639;1307;21970;-60
2022/12/25 05:20:05;;;;;;;31.80;22.90;;;;;;;11.58;64.63;100443.90;105661;1307;21971;-64
2022/12/25 05:22:31;;;;;;;30.00;21.60;;;;;;;11.52;64.53;100448.03;105849;1307;23170;-61
2022/12/25 05:24:56;;;;;;;34.70;22.80;;;;;;;11.49;64.69;100450.36;105718;1298;22000;-65
2022/12/25 05:27:22;;;;;;;32.40;21.50;;;;;;;11.49;64.86;100454.05;105700;1302;21966;-62
2022/12/25 05:29:48;;;;;;;32.60;21.80;;;;;;;11.54;65.35;100458.37;105629;1307;22005;-64
2022/12/25 05:32:14;;;;;;;39.10;24.50;;;;;;;11.59;65.17;100464.63;105815;1293;21958;-60
2022/12/25 05:34:40;;;;;;;37.60;25.50;;;;;;;11.63;65.13;100467.02;105870;1298;21962;-64
2022/12/25 05:37:07;;;;;;;39.80;26.70;;;;;;;11.69;65.21;100470.98;105682;1307;21959;-61
2022/12/25 05:39:34;;;;;;;38.40;25.70;;;;;;;11.71;65.10;100477.98;105814;1307;22788;-62
2022/12/25 05:42:00;;;;;;;33.10;23.90;;;;;;;11.73;64.90;100479.00;105777;1306;23726;-61
2022/12/25 05:44:26;;;;;;;33.00;22.00;;;;;;;11.72;64.78;100474.63;105600;1306;22205;-61
2022/12/25 05:46:51;;;;;;;30.90;21.10;;;;;;;11.74;65.04;100478.44;105590;1306;21963;-61
2022/12/25 05:49:17;;;;;;;27.00;19.80;;;;;;;11.76;65.00;100480.00;105654;1304;21970;-61
2022/12/25 05:51:43;;;;;;;28.00;19.70;;;;;;;11.78;65.08;100483.14;105628;1309;21984;-61
2022/12/25 05:54:08;;;;;;;32.40;20.30;;;;;;;11.76;64.95;100488.09;105600;1306;22002;-61
2022/12/25 05:56:34;;;;;;;26.90;17.60;;;;;;;11.75;64.81;100494.79;105585;1307;23214;-64
2022/12/25 05:58:59;;;;;;;28.10;19.60;;;;;;;11.76;64.79;100495.13;105585;1307;21973;-64
2022/12/25 06:01:26;;;;;;;23.30;17.50;;;;;;;11.74;64.80;100495.86;105619;1302;21969;-60
2022/12/25 06:03:52;;;;;;;25.70;16.80;;;;;;;11.74;64.86;100496.73;105601;1308;21959;-65
2022/12/25 06:06:17;;;;;;;24.30;17.50;;;;;;;11.69;64.46;100499.27;105644;1307;21957;-64
2022/12/25 06:08:43;;;;;;;23.00;17.10;;;;;;;11.65;64.42;100500.23;105756;1307;23108;-65
2022/12/25 06:11:09;;;;;;;28.40;18.20;;;;;;;11.59;64.56;100498.72;105585;1306;23098;-64
2022/12/25 06:13:35;;;;;;;25.80;18.50;;;;;;;11.57;64.58;100500.85;105583;1308;22660;-62
2022/12/25 06:16:08;;;;;;;24.00;17.00;;;;;;;11.56;64.57;100500.70;105634;1307;21960;-61
2022/12/25 06:18:36;;;;;;;27.60;18.10;;;;;;;11.49;64.48;100500.80;105714;1307;23158;-61
2022/12/25 06:21:06;;;;;;;26.20;19.70;;;;;;;11.44;64.48;100497.53;105640;1306;21981;-61
2022/12/25 06:23:32;;;;;;;28.60;18.90;;;;;;;11.41;64.54;100500.55;105615;1309;21962;-61
2022/12/25 06:25:59;;;;;;;29.20;20.10;;;;;;;11.37;64.49;100499.21;103395;1307;1003173;-60
2022/12/25 06:28:24;;;;;;;29.20;20.30;;;;;;;11.36;64.87;100499.56;105665;1302;21963;-65
2022/12/25 06:30:50;;;;;;;27.40;19.60;;;;;;;11.38;65.09;100502.00;105644;1298;22016;-65
2022/12/25 06:33:17;;;;;;;28.40;19.40;;;;;;;11.39;65.24;100503.40;105586;1307;21978;-66
2022/12/25 06:35:43;;;;;;;29.50;19.60;;;;;;;11.42;65.27;100507.92;105727;1306;21954;-65
2022/12/25 06:38:09;;;;;;;26.60;18.80;;;;;;;11.47;65.38;100513.64;105958;1306;21965;-63
2022/12/25 06:40:34;;;;;;;27.70;18.70;;;;;;;11.46;65.23;100512.80;105677;1307;23154;-63
2022/12/25 06:43:00;;;;;;;29.10;20.20;;;;;;;11.50;65.49;100510.96;105725;1306;21964;-61
2022/12/25 06:45:25;;;;;;;32.30;21.60;;;;;;;11.54;65.33;100507.92;105685;1306;21960;-65
2022/12/25 06:47:51;;;;;;;30.80;19.20;;;;;;;11.53;65.24;100505.30;105718;1306;21970;-64
2022/12/25 06:50:17;;;;;;;30.10;19.10;;;;;;;11.57;65.66;100505.61;105652;1306;23079;-65
2022/12/25 06:52:43;;;;;;;26.70;19.00;;;;;;;11.63;65.82;100507.45;105590;1304;21980;-60
2022/12/25 06:55:09;;;;;;;28.30;18.30;;;;;;;11.71;66.03;100512.06;105675;1304;21963;-62
2022/12/25 06:57:35;;;;;;;25.90;18.30;;;;;;;11.80;66.03;100514.41;105673;1306;21983;-61
2022/12/25 07:00:00;;;;;;;26.60;18.60;;;;;;;11.86;65.93;100514.84;105789;1306;21983;-65
2022/12/25 07:02:26;;;;;;;28.30;19.00;;;;;;;11.94;66.16;100514.02;105590;1303;22021;-65
2022/12/25 07:04:52;;;;;;;28.50;18.10;;;;;;;12.04;66.59;100510.54;105816;1306;22244;-61
2022/12/25 07:07:18;;;;;;;25.30;17.80;;;;;;;12.14;66.47;100508.97;105570;1309;21971;-64
2022/12/25 07:09:44;;;;;;;27.40;17.50;;;;;;;12.23;66.53;100509.72;105652;1304;21987;-65
2022/12/25 07:12:18;;;;;;;23.90;15.90;;;;;;;12.31;66.45;100511.69;105727;1304;21960;-61
2022/12/25 07:14:47;;;;;;;22.10;15.90;;;;;;;12.37;66.18;100516.52;105879;1305;22047;-65
2022/12/25 07:17:16;;;;;;;21.50;16.30;;;;;;;12.43;66.28;100515.35;105619;1294;21962;-65
2022/12/25 07:19:42;;;;;;;20.40;15.60;;;;;;;12.48;66.01;100516.48;105658;1308;21968;-66
2022/12/25 07:22:07;;;;;;;22.30;16.10;;;;;;;12.49;65.68;100519.46;105734;1306;21994;-66
2022/12/25 07:24:33;;;;;;;21.00;14.90;;;;;;;12.51;65.70;100519.45;105647;1293;21977;-65
2022/12/25 07:26:59;;;;;;;19.90;15.10;;;;;;;12.52;65.68;100518.71;105662;1295;22018;-65
2022/12/25 07:29:24;;;;;;;21.50;14.40;;;;;;;12.55;65.64;100517.79;105630;1306;21967;-65
2022/12/25 07:31:51;;;;;;;18.60;13.40;;;;;;;12.60;65.71;100518.73;105776;1298;21976;-65
2022/12/25 07:34:17;;;;;;;19.60;14.50;;;;;;;12.62;65.47;100518.16;105806;1307;21968;-65
2022/12/25 10:33:01;;;;;;;28.40;18.80;;;;;;;13.18;64.40;100566.23;105863;1305;23939;-63
2022/12/25 10:35:27;;;;;;;30.00;20.10;;;;;;;13.26;64.64;100572.60;105652;1306;21965;-64
2022/12/25 10:38:01;;;;;;;30.40;21.10;;;;;;;13.35;64.96;100573.48;105818;1301;22011;-65
2022/12/25 10:40:56;;;;;;;35.00;22.80;;;;;;;13.41;64.77;100576.91;105668;1306;22095;-65
2022/12/25 10:43:48;;;;;;;31.30;20.80;;;;;;;13.38;64.22;100573.77;105977;1306;21966;-63
2022/12/25 10:46:15;;;;;;;25.90;19.10;;;;;;;13.25;63.81;100571.39;105831;1306;22575;-63
2022/12/25 10:48:46;;;;;;;23.40;17.20;;;;;;;13.23;63.87;100576.89;105748;1305;21964;-67
2022/12/25 10:51:12;;;;;;;25.30;18.00;;;;;;;13.18;63.67;100578.21;105903;1306;21929;-67
2022/12/25 10:53:40;;;;;;;30.00;19.40;;;;;;;13.21;63.98;100578.33;105955;1306;21970;-66
2022/12/25 10:56:12;;;;;;;24.80;17.50;;;;;;;13.26;64.34;100583.52;106001;1306;23089;-63
2022/12/25 10:58:38;;;;;;;23.90;17.90;;;;;;;13.35;64.26;100584.05;105953;1306;22008;-63
2022/12/25 11:01:06;;;;;;;25.60;17.70;;;;;;;13.39;64.03;100588.91;105763;1302;21982;-63
2022/12/25 11:03:34;;;;;;;28.20;19.10;;;;;;;13.37;63.53;100594.94;105620;1305;21972;-65
2022/12/25 11:06:01;;;;;;;25.70;18.80;;;;;;;13.35;63.39;100596.91;105815;1306;23796;-65
2022/12/25 11:08:29;;;;;;;26.10;19.40;;;;;;;13.38;63.54;100602.85;105800;1306;23679;-65
2022/12/25 11:10:57;;;;;;;24.60;17.30;;;;;;;13.42;63.58;100603.48;105955;1305;22008;-61
2022/12/25 11:13:25;;;;;;;22.10;17.20;;;;;;;13.35;63.32;100605.72;105960;1306;21955;-62
2022/12/25 11:16:14;;;;;;;26.00;18.20;;;;;;;13.31;63.07;100607.91;105965;1306;21969;-63
2022/12/25 11:18:47;;;;;;;23.70;16.60;;;;;;;13.28;63.17;100608.16;105920;1306;22044;-66
2022/12/25 11:21:15;;;;;;;23.50;17.10;;;;;;;13.24;62.93;100607.88;105691;1306;21970;-63
2022/12/25 11:23:45;;;;;;;20.60;15.30;;;;;;;13.15;62.99;100607.88;105971;1306;21968;-66
2022/12/25 11:26:14;;;;;;;22.10;15.30;;;;;;;13.16;63.22;100608.04;105840;1306;23738;-62
2022/12/25 11:28:40;;;;;;;19.70;15.70;;;;;;;13.12;62.93;100611.46;105787;1306;21991;-66
2022/12/25 11:31:13;;;;;;;20.90;14.80;;;;;;;13.14;63.13;100619.17;105812;1306;21968;-65
2022/12/25 11:33:56;;;;;;;22.50;16.80;;;;;;;13.09;63.13;100625.79;105943;1305;21958;-63
2022/12/25 11:36:42;;;;;;;20.70;14.80;;;;;;;12.95;63.17;100626.56;105827;1304;22009;-63
2022/12/25 11:39:36;;;;;;;20.30;14.70;;;;;;;12.90;63.50;100632.47;105801;1304;22010;-66
2022/12/25 11:42:22;;;;;;;29.90;18.50;;;;;;;12.98;63.69;100633.39;105866;1306;21968;-67
2022/12/25 11:45:06;;;;;;;25.80;19.10;;;;;;;13.01;63.75;100635.11;105750;1292;21978;-67
2022/12/25 11:47:42;;;;;;;20.30;15.50;;;;;;;12.95;64.18;100637.14;105876;1306;21967;-63
2022/12/25 11:50:27;;;;;;;23.80;15.70;;;;;;;12.93;63.82;100637.02;105952;1305;21960;-63
2022/12/25 11:52:53;;;;;;;21.40;15.60;;;;;;;12.89;63.68;100642.00;105944;1301;21969;-66
2022/12/25 11:55:45;;;;;;;21.70;16.20;;;;;;;12.94;63.81;100649.14;105653;1307;21978;-67
2022/12/25 11:58:17;;;;;;;24.50;17.00;;;;;;;12.86;64.20;100649.09;105714;1304;22084;-62
2022/12/25 12:00:42;;;;;;;44.30;27.50;;;;;;;12.90;64.30;100646.20;105159;1306;1003093;-67
2022/12/25 12:03:17;;;;;;;43.60;27.10;;;;;;;12.97;64.20;100646.79;105653;1305;21995;-67
2022/12/25 12:05:56;;;;;;;33.10;24.20;;;;;;;12.97;64.33;100646.44;104932;1306;1002931;-63
2022/12/25 12:08:22;;;;;;;25.10;19.60;;;;;;;13.03;64.50;100647.38;105720;1308;23066;-67
2022/12/25 12:11:14;;;;;;;23.90;17.50;;;;;;;13.04;64.31;100652.13;105922;1301;21966;-66
2022/12/25 12:14:16;;;;;;;20.60;14.90;;;;;;;13.03;64.41;100655.31;105733;1306;21981;-65
2022/12/25 12:16:42;;;;;;;21.10;14.80;;;;;;;13.06;64.45;100664.77;105783;1306;21948;-65
2022/12/25 12:19:30;;;;;;;18.40;13.90;;;;;;;13.03;64.39;100671.14;105644;1307;22008;-66
2022/12/25 12:21:58;;;;;;;20.90;15.60;;;;;;;12.93;64.25;100671.70;105971;1305;23719;-62
2022/12/25 12:24:24;;;;;;;22.00;15.50;;;;;;;12.98;64.18;100674.08;105945;1296;22144;-66
2022/12/25 12:27:21;;;;;;;23.00;16.10;;;;;;;13.01;64.16;100676.84;105926;1303;21966;-62
2022/12/25 12:29:49;;;;;;;18.50;14.00;;;;;;;13.01;64.05;100682.31;105717;1292;22011;-65
2022/12/25 12:32:26;;;;;;;21.10;15.20;;;;;;;13.03;64.10;100681.57;105963;1305;21979;-62
2022/12/25 12:34:51;;;;;;;21.00;15.10;;;;;;;12.97;64.16;100680.60;105898;1305;21967;-62
2022/12/25 12:37:28;;;;;;;23.70;16.40;;;;;;;12.98;64.09;100683.94;105910;1294;21974;-65
2022/12/25 12:39:54;;;;;;;23.00;15.80;;;;;;;12.98;64.18;100683.59;105679;1305;21965;-62
2022/12/25 12:42:31;;;;;;;22.00;16.20;;;;;;;12.98;64.15;100684.83;105748;1302;21965;-64
2022/12/25 12:45:06;;;;;;;25.10;17.50;;;;;;;12.97;64.30;100688.91;105902;1306;21967;-62
2022/12/25 12:47:43;;;;;;;24.50;17.50;;;;;;;12.94;64.26;100691.23;105816;1305;21975;-64
2022/12/25 12:50:32;;;;;;;27.40;18.40;;;;;;;12.92;64.29;100692.67;105816;1306;21963;-65
2022/12/25 12:52:58;;;;;;;24.40;17.60;;;;;;;12.81;64.26;100699.02;105662;1307;21967;-63
2022/12/25 12:55:31;;;;;;;23.20;16.50;;;;;;;12.86;64.19;100700.35;105763;1306;21954;-63
2022/12/25 12:58:01;;;;;;;22.80;17.20;;;;;;;12.88;64.30;100702.61;105810;1306;21960;-63
2022/12/25 13:00:42;;;;;;;23.50;17.20;;;;;;;12.89;64.19;100706.45;105752;1306;21970;-63
2022/12/25 13:03:24;;;;;;;28.90;19.70;;;;;;;12.82;64.15;100706.06;105773;1306;24957;-63
2022/12/25 13:05:53;;;;;;;29.20;21.00;;;;;;;12.77;64.45;100711.23;105666;1306;21975;-62
2022/12/25 13:08:57;;;;;;;28.80;21.50;;;;;;;12.75;64.38;100714.77;105776;1306;21971;-61
2022/12/25 16:13:02;;;;;;;50.30;28.80;;;;;;;10.95;90.53;100917.40;105888;1292;22231;-62
2022/12/25 16:15:29;;;;;;;27.40;20.10;;;;;;;11.38;85.12;100916.47;106068;1304;21959;-62
2022/12/25 16:17:55;;;;;;;29.30;21.00;;;;;;;11.57;83.19;100917.56;105983;1304;21975;-63
2022/12/25 16:20:21;;;;;;;24.30;19.00;;;;;;;11.73;81.71;100921.47;105990;1299;22098;-67
2022/12/25 16:22:49;;;;;;;20.90;16.30;;;;;;;11.82;80.40;100924.39;106048;1301;368672;-68
2022/12/25 16:25:17;;;;;;;22.50;14.90;;;;;;;11.89;79.13;100928.20;106215;1303;22126;-66
2022/12/25 16:27:43;;;;;;;19.70;15.80;;;;;;;11.91;77.89;100930.46;106165;1303;21958;-67
2022/12/25 16:30:11;;;;;;;17.20;13.40;;;;;;;11.95;77.28;100933.59;106259;1302;21990;-67
2022/12/25 16:32:41;;;;;;;15.80;11.60;;;;;;;11.98;77.05;100936.73;106196;1303;23181;-63
2022/12/25 16:35:07;;;;;;;16.50;11.70;;;;;;;12.01;76.39;100938.14;106112;1299;21966;-63
2022/12/25 16:37:33;;;;;;;15.40;10.60;;;;;;;12.00;75.58;100939.91;106164;1302;23080;-66
2022/12/25 16:39:59;;;;;;;15.40;10.50;;;;;;;12.07;75.35;100944.25;106267;1302;21956;-62
2022/12/25 16:42:27;;;;;;;17.00;13.10;;;;;;;12.07;74.80;100947.42;106224;1303;22025;-66
2022/12/25 16:44:53;;;;;;;17.50;13.50;;;;;;;12.11;74.37;100948.27;106188;1303;21956;-63
2022/12/25 16:47:19;;;;;;;17.70;14.40;;;;;;;12.08;74.07;100950.05;106183;1301;21958;-62
2022/12/25 16:49:45;;;;;;;16.80;12.40;;;;;;;12.05;73.94;100954.46;106195;1301;21943;-62
2022/12/25 16:52:11;;;;;;;17.00;12.70;;;;;;;12.00;73.56;100965.23;106110;1298;21959;-63
2022/12/25 16:54:37;;;;;;;18.80;14.00;;;;;;;11.99;73.57;100967.69;104761;1302;1004280;-62
2022/12/25 16:57:03;;;;;;;24.60;17.00;;;;;;;11.95;73.34;100972.11;106192;1303;21968;-63
2022/12/25 16:59:29;;;;;;;19.70;15.00;;;;;;;11.97;73.33;100970.32;106174;1303;21949;-63
2022/12/25 17:01:55;;;;;;;25.60;16.70;;;;;;;11.97;72.95;100974.73;106171;1303;21969;-63
2022/12/25 17:04:21;;;;;;;20.50;14.80;;;;;;;11.97;72.67;100977.91;106180;1303;21968;-63
2022/12/25 17:06:48;;;;;;;19.90;14.20;;;;;;;11.97;72.51;100978.23;106123;1303;22050;-62
2022/12/25 17:09:13;;;;;;;21.00;14.60;;;;;;;11.94;72.21;100983.38;106102;1301;22022;-63
2022/12/25 17:11:39;;;;;;;22.10;15.10;;;;;;;11.92;72.27;100989.72;106126;1302;21963;-63
2022/12/25 17:14:06;;;;;;;18.60;13.50;;;;;;;11.89;72.07;100996.42;106098;1303;21961;-63
2022/12/25 17:16:34;;;;;;;20.60;14.90;;;;;;;11.89;71.98;100997.66;106187;1302;21957;-62
2022/12/25 17:19:20;;;;;;;21.40;15.00;;;;;;;11.86;71.83;100994.00;106181;1303;21953;-62
2022/12/25 17:21:46;;;;;;;21.10;15.10;;;;;;;11.85;71.76;100992.77;106095;1302;21980;-64
2022/12/25 17:24:13;;;;;;;20.10;15.70;;;;;;;11.83;71.52;100994.71;106122;1302;21971;-63
2022/12/25 17:26:43;;;;;;;20.50;14.90;;;;;;;11.85;71.52;100999.81;106141;1303;23024;-62
2022/12/25 17:29:10;;;;;;;20.50;14.20;;;;;;;11.76;71.34;101002.14;106122;1301;21970;-63
2022/12/25 17:31:36;;;;;;;23.70;15.70;;;;;;;11.76;71.32;100998.98;106116;1303;21953;-63
2022/12/25 17:34:02;;;;;;;23.20;16.20;;;;;;;11.73;71.08;101002.17;106185;1303;21951;-63
2022/12/25 17:36:29;;;;;;;22.20;16.10;;;;;;;11.66;70.89;101004.50;106143;1303;21964;-63
2022/12/25 17:38:55;;;;;;;23.00;15.80;;;;;;;11.62;70.98;101006.30;106110;1301;22130;-62
2022/12/25 17:41:21;;;;;;;23.80;15.80;;;;;;;11.52;71.23;101010.23;106169;1303;21970;-62
2022/12/25 17:43:47;;;;;;;26.10;17.40;;;;;;;11.50;71.22;101015.33;106234;1298;22856;-67
2022/12/25 17:46:17;;;;;;;22.40;16.30;;;;;;;11.58;70.98;101015.98;106245;1292;21962;-66
2022/12/25 17:48:43;;;;;;;24.60;17.30;;;;;;;11.57;70.89;101013.88;106092;1303;22051;-66
2022/12/25 17:51:11;;;;;;;23.30;16.70;;;;;;;11.58;70.75;101009.83;106113;1298;21972;-66
2022/12/25 17:53:38;;;;;;;21.20;16.70;;;;;;;11.60;70.78;101007.72;106148;1301;21957;-63
2022/12/25 17:56:05;;;;;;;22.50;15.30;;;;;;;11.62;70.60;101008.23;106117;1301;21971;-66
2022/12/25 17:58:31;;;;;;;23.80;16.70;;;;;;;11.61;70.39;101011.58;106162;1303;21946;-63
2022/12/25 18:00:56;;;;;;;22.60;16.70;;;;;;;11.60;70.19;101009.13;106120;1303;21950;-62
2022/12/25 18:03:23;;;;;;;22.80;15.90;;;;;;;11.68;70.27;101010.48;106139;1303;21995;-65
2022/12/25 18:05:49;;;;;;;21.40;15.90;;;;;;;11.69;69.96;101011.34;106141;1301;21946;-63
2022/12/25 18:08:15;;;;;;;19.50;13.60;;;;;;;11.62;69.74;101008.93;106245;1301;21956;-63
2022/12/25 18:10:42;;;;;;;20.80;15.30;;;;;;;11.64;69.75;101010.49;106114;1303;21954;-64
2022/12/25 18:13:10;;;;;;;19.90;14.90;;;;;;;11.69;69.74;101011.52;106095;1303;21954;-62
2022/12/25 18:15:37;;;;;;;20.20;14.60;;;;;;;11.60;69.64;101012.81;106329;1302;21962;-63
2022/12/25 18:18:04;;;;;;;19.40;14.10;;;;;;;11.61;69.77;101016.66;104954;1303;1002637;-64
2022/12/25 18:20:31;;;;;;;20.80;15.60;;;;;;;11.68;69.42;101014.52;106333;1301;23605;-64
2022/12/25 18:22:58;;;;;;;21.80;16.20;;;;;;;11.74;69.26;101010.42;106316;1303;21953;-64
2022/12/25 18:25:25;;;;;;;21.70;16.00;;;;;;;11.74;69.22;101008.14;106292;1303;21955;-64
2022/12/25 18:27:54;;;;;;;20.20;14.90;;;;;;;11.78;69.09;101014.43;106225;1294;21961;-63
2022/12/25 18:30:20;;;;;;;21.70;15.40;;;;;;;11.79;68.96;101011.63;106369;1303;21951;-64
2022/12/25 18:32:49;;;;;;;19.20;14.90;;;;;;;11.78;68.91;101010.75;106366;1301;23058;-63
2022/12/25 18:35:16;;;;;;;24.10;16.00;;;;;;;11.81;69.02;101010.55;106168;1303;23895;-64
2022/12/25 18:37:42;;;;;;;21.00;16.30;;;;;;;11.82;68.78;101016.00;106153;1302;21961;-63
2022/12/25 18:40:13;;;;;;;23.60;16.60;;;;;;;11.79;68.41;101013.91;106298;1300;21956;-63
2022/12/25 18:42:42;;;;;;;19.80;15.50;;;;;;;11.79;68.60;101012.68;106211;1303;21954;-63
2022/12/25 18:45:10;;;;;;;22.30;15.80;;;;;;;11.74;68.99;101018.34;106251;1303;22931;-63
2022/12/25 18:47:36;;;;;;;21.90;15.80;;;;;;;11.74;69.05;101026.77;106259;1303;21954;-63
2022/12/25 18:50:04;;;;;;;24.50;17.70;;;;;;;11.76;68.81;101027.11;106235;1304;21951;-63
2022/12/25 18:52:30;;;;;;;25.00;17.60;;;;;;;11.71;68.47;101028.55;106216;1303;21952;-64
2022/12/25 18:54:56;;;;;;;27.00;19.00;;;;;;;11.70;68.42;101030.31;106117;1303;22133;-63